sensor_id;sensor_type;location;lat;lon;timestamp;temperature;humidity
17774;DHT22;9011;33.236;-97.118;2022-09-09T00:01:26;31.50;99.90
17774;DHT22;9011;33.236;-97.118;2022-09-09T00:04:03;31.40;99.90
17774;DHT22;9011;33.236;-97.118;2022-09-09T00:06:43;31.20;99.90
17774;DHT22;9011;33.236;-97.118;2022-09-09T00:09:15;31.20;99.90
17774;DHT22;9011;33.236;-97.118;2022-09-09T00:11:51;31.20;99.90
17774;DHT22;9011;33.236;-97.118;2022-09-09T00:14:25;31.20;99.90
17774;DHT22;9011;33.236;-97.118;2022-09-09T00:17:02;31.20;99.90
17774;DHT22;9011;33.236;-97.118;2022-09-09T00:19:41;31.20;99.90
17774;DHT22;9011;33.236;-97.118;2022-09-09T00:22:16;31.10;99.90
17774;DHT22;9011;33.236;-97.118;2022-09-09T00:24:46;31.10;99.90
17774;DHT22;9011;33.236;-97.118;2022-09-09T00:27:23;31.00;99.90
17774;DHT22;9011;33.236;-97.118;2022-09-09T00:29:57;30.80;99.90
17774;DHT22;9011;33.236;-97.118;2022-09-09T00:32:30;30.70;99.90
17774;DHT22;9011;33.236;-97.118;2022-09-09T00:35:04;30.70;99.90
17774;DHT22;9011;33.236;-97.118;2022-09-09T00:37:43;30.60;99.90
17774;DHT22;9011;33.236;-97.118;2022-09-09T00:40:22;30.60;99.90
17774;DHT22;9011;33.236;-97.118;2022-09-09T00:43:01;30.40;99.90
17774;DHT22;9011;33.236;-97.118;2022-09-09T00:45:45;30.30;99.90
17774;DHT22;9011;33.236;-97.118;2022-09-09T00:48:16;30.10;99.90
17774;DHT22;9011;33.236;-97.118;2022-09-09T00:50:51;30.00;99.90
17774;DHT22;9011;33.236;-97.118;2022-09-09T00:53:31;29.80;99.90
17774;DHT22;9011;33.236;-97.118;2022-09-09T00:56:12;29.70;99.90
17774;DHT22;9011;33.236;-97.118;2022-09-09T00:58:42;29.60;99.90
17774;DHT22;9011;33.236;-97.118;2022-09-09T01:01:12;29.60;99.90
17774;DHT22;9011;33.236;-97.118;2022-09-09T01:03:46;29.40;99.90
17774;DHT22;9011;33.236;-97.118;2022-09-09T01:06:22;29.30;99.90
17774;DHT22;9011;33.236;-97.118;2022-09-09T01:09:16;29.30;99.90
17774;DHT22;9011;33.236;-97.118;2022-09-09T01:11:59;29.10;99.90
17774;DHT22;9011;33.236;-97.118;2022-09-09T01:14:42;29.00;99.90
17774;DHT22;9011;33.236;-97.118;2022-09-09T01:17:15;28.90;99.90
17774;DHT22;9011;33.236;-97.118;2022-09-09T01:20:03;28.70;99.90
17774;DHT22;9011;33.236;-97.118;2022-09-09T01:22:39;28.60;99.90
17774;DHT22;9011;33.236;-97.118;2022-09-09T01:25:26;28.50;99.90
17774;DHT22;9011;33.236;-97.118;2022-09-09T01:28:00;28.40;99.90
17774;DHT22;9011;33.236;-97.118;2022-09-09T01:30:39;28.40;99.90
17774;DHT22;9011;33.236;-97.118;2022-09-09T01:33:11;28.30;99.90
17774;DHT22;9011;33.236;-97.118;2022-09-09T01:35:46;28.20;99.90
17774;DHT22;9011;33.236;-97.118;2022-09-09T01:38:17;28.10;99.90
17774;DHT22;9011;33.236;-97.118;2022-09-09T01:40:46;28.00;99.90
17774;DHT22;9011;33.236;-97.118;2022-09-09T01:43:17;28.00;99.90
17774;DHT22;9011;33.236;-97.118;2022-09-09T01:45:48;27.80;99.90
17774;DHT22;9011;33.236;-97.118;2022-09-09T01:48:18;27.80;99.90
17774;DHT22;9011;33.236;-97.118;2022-09-09T01:50:47;27.70;99.90
17774;DHT22;9011;33.236;-97.118;2022-09-09T01:53:16;27.60;99.90
17774;DHT22;9011;33.236;-97.118;2022-09-09T01:55:54;27.70;99.90
17774;DHT22;9011;33.236;-97.118;2022-09-09T01:58:34;27.70;99.90
17774;DHT22;9011;33.236;-97.118;2022-09-09T02:01:17;27.60;99.90
17774;DHT22;9011;33.236;-97.118;2022-09-09T02:03:57;27.60;99.90
17774;DHT22;9011;33.236;-97.118;2022-09-09T02:06:53;27.60;99.90
17774;DHT22;9011;33.236;-97.118;2022-09-09T02:09:33;27.50;99.90
17774;DHT22;9011;33.236;-97.118;2022-09-09T02:12:08;27.60;99.90
17774;DHT22;9011;33.236;-97.118;2022-09-09T02:14:44;27.50;99.90
17774;DHT22;9011;33.236;-97.118;2022-09-09T02:17:18;27.50;99.90
17774;DHT22;9011;33.236;-97.118;2022-09-09T02:19:54;27.40;99.90
17774;DHT22;9011;33.236;-97.118;2022-09-09T02:22:25;27.40;99.90
17774;DHT22;9011;33.236;-97.118;2022-09-09T02:24:59;27.40;99.90
17774;DHT22;9011;33.236;-97.118;2022-09-09T02:27:28;27.40;99.90
17774;DHT22;9011;33.236;-97.118;2022-09-09T02:30:00;27.40;99.90
17774;DHT22;9011;33.236;-97.118;2022-09-09T02:32:33;27.30;99.90
17774;DHT22;9011;33.236;-97.118;2022-09-09T02:35:05;27.30;99.90
17774;DHT22;9011;33.236;-97.118;2022-09-09T02:37:36;27.20;99.90
17774;DHT22;9011;33.236;-97.118;2022-09-09T02:40:15;27.20;99.90
17774;DHT22;9011;33.236;-97.118;2022-09-09T02:42:47;27.10;99.90
17774;DHT22;9011;33.236;-97.118;2022-09-09T02:45:34;27.00;99.90
17774;DHT22;9011;33.236;-97.118;2022-09-09T02:48:12;27.00;99.90
17774;DHT22;9011;33.236;-97.118;2022-09-09T02:54:44;26.90;99.90
17774;DHT22;9011;33.236;-97.118;2022-09-09T03:01:27;26.80;99.90
17774;DHT22;9011;33.236;-97.118;2022-09-09T03:04:03;26.80;99.90
17774;DHT22;9011;33.236;-97.118;2022-09-09T03:06:32;26.70;99.90
17774;DHT22;9011;33.236;-97.118;2022-09-09T03:09:00;26.60;99.90
17774;DHT22;9011;33.236;-97.118;2022-09-09T03:11:29;26.50;99.90
17774;DHT22;9011;33.236;-97.118;2022-09-09T03:13:57;26.40;99.90
17774;DHT22;9011;33.236;-97.118;2022-09-09T03:16:30;26.30;99.90
17774;DHT22;9011;33.236;-97.118;2022-09-09T03:19:01;26.30;99.90
17774;DHT22;9011;33.236;-97.118;2022-09-09T03:21:38;26.30;99.90
17774;DHT22;9011;33.236;-97.118;2022-09-09T03:24:07;26.30;99.90
17774;DHT22;9011;33.236;-97.118;2022-09-09T03:26:36;26.20;99.90
17774;DHT22;9011;33.236;-97.118;2022-09-09T03:29:11;26.20;99.90
17774;DHT22;9011;33.236;-97.118;2022-09-09T03:31:47;26.00;99.90
17774;DHT22;9011;33.236;-97.118;2022-09-09T03:34:19;25.90;99.90
17774;DHT22;9011;33.236;-97.118;2022-09-09T03:36:50;26.00;99.90
17774;DHT22;9011;33.236;-97.118;2022-09-09T03:39:18;26.00;99.90
17774;DHT22;9011;33.236;-97.118;2022-09-09T03:41:46;26.00;99.90
17774;DHT22;9011;33.236;-97.118;2022-09-09T03:44:21;25.90;99.90
17774;DHT22;9011;33.236;-97.118;2022-09-09T03:46:55;25.90;99.90
17774;DHT22;9011;33.236;-97.118;2022-09-09T03:49:27;25.80;99.90
17774;DHT22;9011;33.236;-97.118;2022-09-09T03:51:56;25.80;99.90
17774;DHT22;9011;33.236;-97.118;2022-09-09T03:54:25;25.80;99.90
17774;DHT22;9011;33.236;-97.118;2022-09-09T03:56:53;25.80;99.90
17774;DHT22;9011;33.236;-97.118;2022-09-09T03:59:25;25.80;99.90
17774;DHT22;9011;33.236;-97.118;2022-09-09T04:01:55;25.80;99.90
17774;DHT22;9011;33.236;-97.118;2022-09-09T04:04:25;25.80;99.90
17774;DHT22;9011;33.236;-97.118;2022-09-09T04:06:54;25.80;99.90
17774;DHT22;9011;33.236;-97.118;2022-09-09T04:09:23;25.70;99.90
17774;DHT22;9011;33.236;-97.118;2022-09-09T04:11:52;25.70;99.90
17774;DHT22;9011;33.236;-97.118;2022-09-09T04:14:21;25.70;99.90
17774;DHT22;9011;33.236;-97.118;2022-09-09T04:16:56;25.70;99.90
17774;DHT22;9011;33.236;-97.118;2022-09-09T04:19:26;25.60;99.90
17774;DHT22;9011;33.236;-97.118;2022-09-09T04:21:57;25.60;99.90
17774;DHT22;9011;33.236;-97.118;2022-09-09T04:24:26;25.60;99.90
17774;DHT22;9011;33.236;-97.118;2022-09-09T04:26:55;25.50;99.90
17774;DHT22;9011;33.236;-97.118;2022-09-09T04:29:23;25.50;99.90
17774;DHT22;9011;33.236;-97.118;2022-09-09T04:31:52;25.50;99.90
17774;DHT22;9011;33.236;-97.118;2022-09-09T04:34:22;25.30;99.90
17774;DHT22;9011;33.236;-97.118;2022-09-09T04:36:51;25.30;99.90
17774;DHT22;9011;33.236;-97.118;2022-09-09T04:39:22;25.30;99.90
17774;DHT22;9011;33.236;-97.118;2022-09-09T04:41:51;25.30;99.90
17774;DHT22;9011;33.236;-97.118;2022-09-09T04:44:19;25.20;99.90
17774;DHT22;9011;33.236;-97.118;2022-09-09T04:46:47;25.20;99.90
17774;DHT22;9011;33.236;-97.118;2022-09-09T04:49:16;25.20;99.90
17774;DHT22;9011;33.236;-97.118;2022-09-09T04:51:46;25.10;99.90
17774;DHT22;9011;33.236;-97.118;2022-09-09T04:54:16;25.10;99.90
17774;DHT22;9011;33.236;-97.118;2022-09-09T04:56:46;25.10;99.90
17774;DHT22;9011;33.236;-97.118;2022-09-09T04:59:16;25.10;99.90
17774;DHT22;9011;33.236;-97.118;2022-09-09T05:01:46;25.00;99.90
17774;DHT22;9011;33.236;-97.118;2022-09-09T05:04:23;24.90;99.90
17774;DHT22;9011;33.236;-97.118;2022-09-09T05:07:04;24.80;99.90
17774;DHT22;9011;33.236;-97.118;2022-09-09T05:10:36;24.80;99.90
17774;DHT22;9011;33.236;-97.118;2022-09-09T05:13:06;24.80;99.90
17774;DHT22;9011;33.236;-97.118;2022-09-09T05:19:20;24.80;99.90
17774;DHT22;9011;33.236;-97.118;2022-09-09T05:21:50;24.80;99.90
17774;DHT22;9011;33.236;-97.118;2022-09-09T05:24:31;24.80;99.90
17774;DHT22;9011;33.236;-97.118;2022-09-09T05:27:00;24.70;99.90
17774;DHT22;9011;33.236;-97.118;2022-09-09T05:29:29;24.80;99.90
17774;DHT22;9011;33.236;-97.118;2022-09-09T05:31:59;24.70;99.90
17774;DHT22;9011;33.236;-97.118;2022-09-09T05:34:28;24.70;99.90
17774;DHT22;9011;33.236;-97.118;2022-09-09T05:36:57;24.70;99.90
17774;DHT22;9011;33.236;-97.118;2022-09-09T05:39:25;24.70;99.90
17774;DHT22;9011;33.236;-97.118;2022-09-09T05:42:03;24.70;99.90
17774;DHT22;9011;33.236;-97.118;2022-09-09T05:44:35;24.70;99.90
17774;DHT22;9011;33.236;-97.118;2022-09-09T05:47:04;24.70;99.90
17774;DHT22;9011;33.236;-97.118;2022-09-09T05:49:37;24.80;99.90
17774;DHT22;9011;33.236;-97.118;2022-09-09T05:52:06;24.70;99.90
17774;DHT22;9011;33.236;-97.118;2022-09-09T05:54:36;24.70;99.90
17774;DHT22;9011;33.236;-97.118;2022-09-09T05:57:06;24.80;99.90
17774;DHT22;9011;33.236;-97.118;2022-09-09T05:59:34;24.70;99.90
17774;DHT22;9011;33.236;-97.118;2022-09-09T06:02:16;24.60;99.90
17774;DHT22;9011;33.236;-97.118;2022-09-09T06:04:47;24.50;99.90
17774;DHT22;9011;33.236;-97.118;2022-09-09T06:07:15;24.60;99.90
17774;DHT22;9011;33.236;-97.118;2022-09-09T06:09:44;24.60;99.90
17774;DHT22;9011;33.236;-97.118;2022-09-09T06:12:19;24.60;99.90
17774;DHT22;9011;33.236;-97.118;2022-09-09T06:14:50;24.50;99.90
17774;DHT22;9011;33.236;-97.118;2022-09-09T06:17:19;24.50;99.90
17774;DHT22;9011;33.236;-97.118;2022-09-09T06:19:47;24.40;99.90
17774;DHT22;9011;33.236;-97.118;2022-09-09T06:22:16;24.40;99.90
17774;DHT22;9011;33.236;-97.118;2022-09-09T06:24:50;24.40;99.90
17774;DHT22;9011;33.236;-97.118;2022-09-09T06:27:21;24.40;99.90
17774;DHT22;9011;33.236;-97.118;2022-09-09T06:29:50;24.40;99.90
17774;DHT22;9011;33.236;-97.118;2022-09-09T06:32:22;24.50;99.90
17774;DHT22;9011;33.236;-97.118;2022-09-09T06:34:51;24.50;99.90
17774;DHT22;9011;33.236;-97.118;2022-09-09T06:37:19;24.50;99.90
17774;DHT22;9011;33.236;-97.118;2022-09-09T06:39:50;24.50;99.90
17774;DHT22;9011;33.236;-97.118;2022-09-09T06:42:20;24.60;99.90
17774;DHT22;9011;33.236;-97.118;2022-09-09T06:44:48;24.60;99.90
17774;DHT22;9011;33.236;-97.118;2022-09-09T06:47:18;24.60;99.90
17774;DHT22;9011;33.236;-97.118;2022-09-09T06:49:47;24.70;99.90
17774;DHT22;9011;33.236;-97.118;2022-09-09T06:52:15;24.60;99.90
17774;DHT22;9011;33.236;-97.118;2022-09-09T06:54:48;24.60;99.90
17774;DHT22;9011;33.236;-97.118;2022-09-09T06:57:17;24.60;99.90
17774;DHT22;9011;33.236;-97.118;2022-09-09T06:59:47;24.70;99.90
17774;DHT22;9011;33.236;-97.118;2022-09-09T07:02:16;24.70;99.90
17774;DHT22;9011;33.236;-97.118;2022-09-09T07:04:45;24.70;99.90
17774;DHT22;9011;33.236;-97.118;2022-09-09T07:07:20;24.70;99.90
17774;DHT22;9011;33.236;-97.118;2022-09-09T07:09:56;24.60;99.90
17774;DHT22;9011;33.236;-97.118;2022-09-09T07:12:27;24.60;99.90
17774;DHT22;9011;33.236;-97.118;2022-09-09T07:14:59;24.40;99.90
17774;DHT22;9011;33.236;-97.118;2022-09-09T07:17:27;24.40;99.90
17774;DHT22;9011;33.236;-97.118;2022-09-09T07:19:56;24.40;99.90
17774;DHT22;9011;33.236;-97.118;2022-09-09T07:22:25;24.40;99.90
17774;DHT22;9011;33.236;-97.118;2022-09-09T07:24:55;24.30;99.90
17774;DHT22;9011;33.236;-97.118;2022-09-09T07:27:23;24.30;99.90
17774;DHT22;9011;33.236;-97.118;2022-09-09T07:29:53;24.30;99.90
17774;DHT22;9011;33.236;-97.118;2022-09-09T07:32:23;24.30;99.90
17774;DHT22;9011;33.236;-97.118;2022-09-09T07:34:52;24.30;99.90
17774;DHT22;9011;33.236;-97.118;2022-09-09T07:37:32;24.20;99.90
17774;DHT22;9011;33.236;-97.118;2022-09-09T07:40:15;24.20;99.90
17774;DHT22;9011;33.236;-97.118;2022-09-09T07:42:49;24.10;99.90
17774;DHT22;9011;33.236;-97.118;2022-09-09T07:45:26;23.90;99.90
17774;DHT22;9011;33.236;-97.118;2022-09-09T07:48:01;23.90;99.90
17774;DHT22;9011;33.236;-97.118;2022-09-09T07:50:30;24.00;99.90
17774;DHT22;9011;33.236;-97.118;2022-09-09T07:52:58;24.00;99.90
17774;DHT22;9011;33.236;-97.118;2022-09-09T07:55:28;24.00;99.90
17774;DHT22;9011;33.236;-97.118;2022-09-09T07:57:57;24.00;99.90
17774;DHT22;9011;33.236;-97.118;2022-09-09T08:00:26;23.90;99.90
17774;DHT22;9011;33.236;-97.118;2022-09-09T08:02:54;23.80;99.90
17774;DHT22;9011;33.236;-97.118;2022-09-09T08:05:25;23.80;99.90
17774;DHT22;9011;33.236;-97.118;2022-09-09T08:07:53;23.80;99.90
17774;DHT22;9011;33.236;-97.118;2022-09-09T08:10:22;23.70;99.90
17774;DHT22;9011;33.236;-97.118;2022-09-09T08:12:50;23.70;99.90
17774;DHT22;9011;33.236;-97.118;2022-09-09T08:15:21;23.60;99.90
17774;DHT22;9011;33.236;-97.118;2022-09-09T08:17:51;23.70;99.90
17774;DHT22;9011;33.236;-97.118;2022-09-09T08:20:20;23.70;99.90
17774;DHT22;9011;33.236;-97.118;2022-09-09T08:22:58;23.70;99.90
17774;DHT22;9011;33.236;-97.118;2022-09-09T08:25:31;23.70;99.90
17774;DHT22;9011;33.236;-97.118;2022-09-09T08:28:01;23.70;99.90
17774;DHT22;9011;33.236;-97.118;2022-09-09T08:30:30;23.70;99.90
17774;DHT22;9011;33.236;-97.118;2022-09-09T08:32:58;23.70;99.90
17774;DHT22;9011;33.236;-97.118;2022-09-09T08:35:30;23.80;99.90
17774;DHT22;9011;33.236;-97.118;2022-09-09T08:38:00;23.80;99.90
17774;DHT22;9011;33.236;-97.118;2022-09-09T08:40:32;23.70;99.90
17774;DHT22;9011;33.236;-97.118;2022-09-09T08:43:03;23.70;99.90
17774;DHT22;9011;33.236;-97.118;2022-09-09T08:45:35;23.70;99.90
17774;DHT22;9011;33.236;-97.118;2022-09-09T08:48:25;23.70;99.90
17774;DHT22;9011;33.236;-97.118;2022-09-09T08:51:00;23.80;99.90
17774;DHT22;9011;33.236;-97.118;2022-09-09T08:53:38;23.70;99.90
17774;DHT22;9011;33.236;-97.118;2022-09-09T08:56:21;23.80;99.90
17774;DHT22;9011;33.236;-97.118;2022-09-09T08:59:04;23.80;99.90
17774;DHT22;9011;33.236;-97.118;2022-09-09T09:01:59;23.70;99.90
17774;DHT22;9011;33.236;-97.118;2022-09-09T09:04:38;23.70;99.90
17774;DHT22;9011;33.236;-97.118;2022-09-09T09:07:20;23.60;99.90
17774;DHT22;9011;33.236;-97.118;2022-09-09T09:09:56;23.60;99.90
17774;DHT22;9011;33.236;-97.118;2022-09-09T09:12:32;23.60;99.90
17774;DHT22;9011;33.236;-97.118;2022-09-09T09:15:14;23.60;99.90
17774;DHT22;9011;33.236;-97.118;2022-09-09T09:17:43;23.60;99.90
17774;DHT22;9011;33.236;-97.118;2022-09-09T09:20:14;23.60;99.90
17774;DHT22;9011;33.236;-97.118;2022-09-09T09:22:48;23.60;99.90
17774;DHT22;9011;33.236;-97.118;2022-09-09T09:25:20;23.50;99.90
17774;DHT22;9011;33.236;-97.118;2022-09-09T09:27:56;23.50;99.90
17774;DHT22;9011;33.236;-97.118;2022-09-09T09:30:29;23.40;99.90
17774;DHT22;9011;33.236;-97.118;2022-09-09T09:33:02;23.40;99.90
17774;DHT22;9011;33.236;-97.118;2022-09-09T09:35:33;23.40;99.90
17774;DHT22;9011;33.236;-97.118;2022-09-09T09:38:05;23.40;99.90
17774;DHT22;9011;33.236;-97.118;2022-09-09T09:40:54;23.40;99.90
17774;DHT22;9011;33.236;-97.118;2022-09-09T09:43:27;23.40;99.90
17774;DHT22;9011;33.236;-97.118;2022-09-09T09:45:56;23.40;99.90
17774;DHT22;9011;33.236;-97.118;2022-09-09T09:48:28;23.40;99.90
17774;DHT22;9011;33.236;-97.118;2022-09-09T09:51:01;23.40;99.90
17774;DHT22;9011;33.236;-97.118;2022-09-09T09:53:34;23.40;99.90
17774;DHT22;9011;33.236;-97.118;2022-09-09T09:56:08;23.40;99.90
17774;DHT22;9011;33.236;-97.118;2022-09-09T09:58:50;23.40;99.90
17774;DHT22;9011;33.236;-97.118;2022-09-09T10:01:21;23.40;99.90
17774;DHT22;9011;33.236;-97.118;2022-09-09T10:03:51;23.30;99.90
17774;DHT22;9011;33.236;-97.118;2022-09-09T10:06:34;23.30;99.90
17774;DHT22;9011;33.236;-97.118;2022-09-09T10:09:23;23.20;99.90
17774;DHT22;9011;33.236;-97.118;2022-09-09T10:12:00;23.20;99.90
17774;DHT22;9011;33.236;-97.118;2022-09-09T10:14:37;23.20;99.90
17774;DHT22;9011;33.236;-97.118;2022-09-09T10:17:18;23.00;99.90
17774;DHT22;9011;33.236;-97.118;2022-09-09T10:19:58;23.00;99.90
17774;DHT22;9011;33.236;-97.118;2022-09-09T10:22:33;23.00;99.90
17774;DHT22;9011;33.236;-97.118;2022-09-09T10:25:29;23.00;99.90
17774;DHT22;9011;33.236;-97.118;2022-09-09T10:28:24;23.00;99.90
17774;DHT22;9011;33.236;-97.118;2022-09-09T10:31:07;22.90;99.90
17774;DHT22;9011;33.236;-97.118;2022-09-09T10:33:44;22.90;99.90
17774;DHT22;9011;33.236;-97.118;2022-09-09T10:36:20;22.80;99.90
17774;DHT22;9011;33.236;-97.118;2022-09-09T10:38:52;22.90;99.90
17774;DHT22;9011;33.236;-97.118;2022-09-09T10:41:30;22.90;99.90
17774;DHT22;9011;33.236;-97.118;2022-09-09T10:47:26;22.90;99.90
17774;DHT22;9011;33.236;-97.118;2022-09-09T10:50:14;22.90;99.90
17774;DHT22;9011;33.236;-97.118;2022-09-09T10:52:51;22.90;99.90
17774;DHT22;9011;33.236;-97.118;2022-09-09T10:55:24;22.80;99.90
17774;DHT22;9011;33.236;-97.118;2022-09-09T10:57:56;22.70;99.90
17774;DHT22;9011;33.236;-97.118;2022-09-09T11:00:35;22.70;99.90
17774;DHT22;9011;33.236;-97.118;2022-09-09T11:03:06;22.70;99.90
17774;DHT22;9011;33.236;-97.118;2022-09-09T11:05:42;22.70;99.90
17774;DHT22;9011;33.236;-97.118;2022-09-09T11:08:15;22.70;99.90
17774;DHT22;9011;33.236;-97.118;2022-09-09T11:10:50;22.70;99.90
17774;DHT22;9011;33.236;-97.118;2022-09-09T11:13:26;22.70;99.90
17774;DHT22;9011;33.236;-97.118;2022-09-09T11:16:04;22.70;99.90
17774;DHT22;9011;33.236;-97.118;2022-09-09T11:18:37;22.60;99.90
17774;DHT22;9011;33.236;-97.118;2022-09-09T11:21:14;22.70;99.90
17774;DHT22;9011;33.236;-97.118;2022-09-09T11:23:48;22.70;99.90
17774;DHT22;9011;33.236;-97.118;2022-09-09T11:26:25;22.80;99.90
17774;DHT22;9011;33.236;-97.118;2022-09-09T11:29:11;22.80;99.90
17774;DHT22;9011;33.236;-97.118;2022-09-09T11:31:54;22.80;99.90
17774;DHT22;9011;33.236;-97.118;2022-09-09T11:34:37;22.80;99.90
17774;DHT22;9011;33.236;-97.118;2022-09-09T11:37:17;22.80;99.90
17774;DHT22;9011;33.236;-97.118;2022-09-09T11:40:14;22.70;99.90
17774;DHT22;9011;33.236;-97.118;2022-09-09T11:42:46;22.70;99.90
17774;DHT22;9011;33.236;-97.118;2022-09-09T11:45:24;22.60;99.90
17774;DHT22;9011;33.236;-97.118;2022-09-09T11:47:57;22.60;99.90
17774;DHT22;9011;33.236;-97.118;2022-09-09T11:50:33;22.50;99.90
17774;DHT22;9011;33.236;-97.118;2022-09-09T11:53:17;22.40;99.90
17774;DHT22;9011;33.236;-97.118;2022-09-09T11:58:41;22.40;99.90
17774;DHT22;9011;33.236;-97.118;2022-09-09T12:01:34;22.30;99.90
17774;DHT22;9011;33.236;-97.118;2022-09-09T12:04:16;22.30;99.90
17774;DHT22;9011;33.236;-97.118;2022-09-09T12:06:46;22.20;99.90
17774;DHT22;9011;33.236;-97.118;2022-09-09T12:09:31;22.10;99.90
17774;DHT22;9011;33.236;-97.118;2022-09-09T12:12:20;22.10;99.90
17774;DHT22;9011;33.236;-97.118;2022-09-09T12:15:01;22.00;99.90
17774;DHT22;9011;33.236;-97.118;2022-09-09T12:17:32;22.10;99.90
17774;DHT22;9011;33.236;-97.118;2022-09-09T12:20:13;22.10;99.90
17774;DHT22;9011;33.236;-97.118;2022-09-09T12:23:15;22.10;99.90
17774;DHT22;9011;33.236;-97.118;2022-09-09T12:25:56;22.10;99.90
17774;DHT22;9011;33.236;-97.118;2022-09-09T12:28:32;22.10;99.90
17774;DHT22;9011;33.236;-97.118;2022-09-09T12:31:10;22.00;99.90
17774;DHT22;9011;33.236;-97.118;2022-09-09T12:33:45;21.90;99.90
17774;DHT22;9011;33.236;-97.118;2022-09-09T12:36:17;21.90;99.90
17774;DHT22;9011;33.236;-97.118;2022-09-09T12:38:47;21.90;99.90
17774;DHT22;9011;33.236;-97.118;2022-09-09T12:41:21;21.90;99.90
17774;DHT22;9011;33.236;-97.118;2022-09-09T12:43:51;21.90;99.90
17774;DHT22;9011;33.236;-97.118;2022-09-09T12:46:32;21.90;99.90
17774;DHT22;9011;33.236;-97.118;2022-09-09T12:49:03;22.00;99.90
17774;DHT22;9011;33.236;-97.118;2022-09-09T12:51:34;22.00;99.90
17774;DHT22;9011;33.236;-97.118;2022-09-09T12:54:04;22.10;99.90
17774;DHT22;9011;33.236;-97.118;2022-09-09T12:56:32;22.20;99.90
17774;DHT22;9011;33.236;-97.118;2022-09-09T12:59:01;22.10;99.90
17774;DHT22;9011;33.236;-97.118;2022-09-09T13:01:31;22.20;99.90
17774;DHT22;9011;33.236;-97.118;2022-09-09T13:04:00;22.20;99.90
17774;DHT22;9011;33.236;-97.118;2022-09-09T13:06:29;22.20;99.90
17774;DHT22;9011;33.236;-97.118;2022-09-09T13:09:02;22.30;99.90
17774;DHT22;9011;33.236;-97.118;2022-09-09T13:11:35;22.30;99.90
17774;DHT22;9011;33.236;-97.118;2022-09-09T13:14:06;22.30;99.90
17774;DHT22;9011;33.236;-97.118;2022-09-09T13:16:35;22.40;99.90
17774;DHT22;9011;33.236;-97.118;2022-09-09T13:19:09;22.50;99.90
17774;DHT22;9011;33.236;-97.118;2022-09-09T13:21:39;22.60;99.90
17774;DHT22;9011;33.236;-97.118;2022-09-09T13:24:27;22.70;99.90
17774;DHT22;9011;33.236;-97.118;2022-09-09T13:26:57;22.80;99.90
17774;DHT22;9011;33.236;-97.118;2022-09-09T13:29:26;22.90;99.90
17774;DHT22;9011;33.236;-97.118;2022-09-09T13:32:03;23.00;99.90
17774;DHT22;9011;33.236;-97.118;2022-09-09T13:34:33;23.10;99.90
17774;DHT22;9011;33.236;-97.118;2022-09-09T13:37:02;23.20;99.90
17774;DHT22;9011;33.236;-97.118;2022-09-09T13:39:34;23.40;99.90
17774;DHT22;9011;33.236;-97.118;2022-09-09T13:42:04;23.40;99.90
17774;DHT22;9011;33.236;-97.118;2022-09-09T13:44:38;23.50;99.90
17774;DHT22;9011;33.236;-97.118;2022-09-09T13:47:19;23.60;99.90
17774;DHT22;9011;33.236;-97.118;2022-09-09T13:49:48;23.70;99.90
17774;DHT22;9011;33.236;-97.118;2022-09-09T13:52:17;23.80;99.90
17774;DHT22;9011;33.236;-97.118;2022-09-09T13:54:49;24.00;99.90
17774;DHT22;9011;33.236;-97.118;2022-09-09T13:57:19;24.00;99.90
17774;DHT22;9011;33.236;-97.118;2022-09-09T13:59:48;24.10;99.90
17774;DHT22;9011;33.236;-97.118;2022-09-09T14:02:17;24.30;99.90
17774;DHT22;9011;33.236;-97.118;2022-09-09T14:04:47;24.20;99.90
17774;DHT22;9011;33.236;-97.118;2022-09-09T14:07:17;24.30;99.90
17774;DHT22;9011;33.236;-97.118;2022-09-09T14:09:46;24.40;99.90
17774;DHT22;9011;33.236;-97.118;2022-09-09T14:12:17;24.60;99.90
17774;DHT22;9011;33.236;-97.118;2022-09-09T14:14:46;24.70;99.90
17774;DHT22;9011;33.236;-97.118;2022-09-09T14:17:14;24.80;99.90
17774;DHT22;9011;33.236;-97.118;2022-09-09T14:19:43;24.90;99.90
17774;DHT22;9011;33.236;-97.118;2022-09-09T14:22:12;24.90;99.90
17774;DHT22;9011;33.236;-97.118;2022-09-09T14:24:40;25.10;99.90
17774;DHT22;9011;33.236;-97.118;2022-09-09T14:27:09;25.30;99.90
17774;DHT22;9011;33.236;-97.118;2022-09-09T14:29:39;25.30;99.90
17774;DHT22;9011;33.236;-97.118;2022-09-09T14:32:07;25.50;99.90
17774;DHT22;9011;33.236;-97.118;2022-09-09T14:34:35;25.70;99.90
17774;DHT22;9011;33.236;-97.118;2022-09-09T14:37:04;25.70;99.90
17774;DHT22;9011;33.236;-97.118;2022-09-09T14:39:32;25.90;99.90
17774;DHT22;9011;33.236;-97.118;2022-09-09T14:42:01;26.10;99.90
17774;DHT22;9011;33.236;-97.118;2022-09-09T14:44:29;26.10;99.90
17774;DHT22;9011;33.236;-97.118;2022-09-09T14:46:59;26.30;99.90
17774;DHT22;9011;33.236;-97.118;2022-09-09T14:49:28;26.50;99.90
17774;DHT22;9011;33.236;-97.118;2022-09-09T14:51:56;26.70;99.90
17774;DHT22;9011;33.236;-97.118;2022-09-09T14:54:24;26.70;99.90
17774;DHT22;9011;33.236;-97.118;2022-09-09T14:56:53;26.80;99.90
17774;DHT22;9011;33.236;-97.118;2022-09-09T14:59:21;27.00;99.90
17774;DHT22;9011;33.236;-97.118;2022-09-09T15:01:49;27.20;99.90
17774;DHT22;9011;33.236;-97.118;2022-09-09T15:04:19;27.30;99.90
17774;DHT22;9011;33.236;-97.118;2022-09-09T15:06:48;27.50;99.90
17774;DHT22;9011;33.236;-97.118;2022-09-09T15:09:18;27.50;99.90
17774;DHT22;9011;33.236;-97.118;2022-09-09T15:11:47;27.50;99.90
17774;DHT22;9011;33.236;-97.118;2022-09-09T15:14:15;27.40;99.90
17774;DHT22;9011;33.236;-97.118;2022-09-09T15:16:43;27.50;99.90
17774;DHT22;9011;33.236;-97.118;2022-09-09T15:19:12;27.70;99.90
17774;DHT22;9011;33.236;-97.118;2022-09-09T15:21:41;27.80;99.90
17774;DHT22;9011;33.236;-97.118;2022-09-09T15:24:10;28.00;99.90
17774;DHT22;9011;33.236;-97.118;2022-09-09T15:26:39;27.90;99.90
17774;DHT22;9011;33.236;-97.118;2022-09-09T15:29:08;28.00;99.90
17774;DHT22;9011;33.236;-97.118;2022-09-09T15:31:37;28.10;99.90
17774;DHT22;9011;33.236;-97.118;2022-09-09T15:34:06;28.40;99.90
17774;DHT22;9011;33.236;-97.118;2022-09-09T15:36:36;28.50;99.90
17774;DHT22;9011;33.236;-97.118;2022-09-09T15:39:08;28.40;99.90
17774;DHT22;9011;33.236;-97.118;2022-09-09T15:41:39;28.60;99.90
17774;DHT22;9011;33.236;-97.118;2022-09-09T15:44:08;28.80;99.90
17774;DHT22;9011;33.236;-97.118;2022-09-09T15:46:37;28.70;99.90
17774;DHT22;9011;33.236;-97.118;2022-09-09T15:49:07;29.00;99.90
17774;DHT22;9011;33.236;-97.118;2022-09-09T15:51:37;28.90;99.90
17774;DHT22;9011;33.236;-97.118;2022-09-09T15:54:07;29.20;99.90
17774;DHT22;9011;33.236;-97.118;2022-09-09T15:56:35;29.10;99.90
17774;DHT22;9011;33.236;-97.118;2022-09-09T15:59:04;29.20;99.90
17774;DHT22;9011;33.236;-97.118;2022-09-09T16:01:32;29.40;99.90
17774;DHT22;9011;33.236;-97.118;2022-09-09T16:04:01;29.00;99.90
17774;DHT22;9011;33.236;-97.118;2022-09-09T16:06:30;29.00;99.90
17774;DHT22;9011;33.236;-97.118;2022-09-09T16:09:00;29.30;99.90
17774;DHT22;9011;33.236;-97.118;2022-09-09T16:11:34;29.00;99.90